Time;durP1;ratioP1;P1;durP2;ratioP2;P2;SDS_P1;SDS_P2;PMS_P1;PMS_P2;Temp;Humidity;BMP_temperature;BMP_pressure;BME280_temperature;BME280_humidity;BME280_pressure;Samples;Min_cycle;Max_cycle;Signal;HPM_P1;HPM_P2
2022/09/17 00:01:20;;;;;;;3.67;1.63;;;11.90;99.90;;;;;;5066810;28;20481;-69
2022/09/17 00:03:51;;;;;;;5.90;1.90;;;11.90;99.90;;;;;;5064392;28;20217;-69
2022/09/17 00:06:24;;;;;;;4.13;1.27;;;11.90;99.90;;;;;;5057712;28;20246;-70
2022/09/17 00:08:52;;;;;;;4.23;1.70;;;11.90;99.90;;;;;;5052606;28;20255;-69
2022/09/17 00:11:24;;;;;;;5.50;1.70;;;11.90;99.90;;;;;;5066864;28;20211;-70
2022/09/17 00:13:52;;;;;;;2.53;1.50;;;11.90;99.90;;;;;;5066761;28;20208;-69
2022/09/17 00:16:32;;;;;;;4.10;1.60;;;11.90;99.90;;;;;;5059182;28;20201;-69
2022/09/17 00:19:00;;;;;;;2.80;1.50;;;11.90;99.90;;;;;;5046792;28;20203;-69
2022/09/17 00:21:29;;;;;;;3.53;1.70;;;11.90;99.90;;;;;;5046316;28;20674;-69
2022/09/17 00:23:56;;;;;;;5.67;1.60;;;11.90;99.90;;;;;;5058408;28;20210;-70
2022/09/17 00:26:24;;;;;;;4.03;1.57;;;11.90;99.90;;;;;;5066722;28;20204;-69
2022/09/17 00:28:52;;;;;;;5.23;1.57;;;11.90;99.90;;;;;;5053119;28;20250;-69
2022/09/17 00:31:20;;;;;;;3.77;1.47;;;11.90;99.90;;;;;;5046756;28;20231;-69
2022/09/17 00:33:48;;;;;;;3.43;1.43;;;11.90;99.90;;;;;;5066406;28;20571;-69
2022/09/17 00:36:19;;;;;;;1.97;1.50;;;11.90;99.90;;;;;;5067364;28;20594;-69
2022/09/17 00:38:50;;;;;;;4.30;1.50;;;11.90;99.90;;;;;;5064419;28;20193;-69
2022/09/17 00:41:17;;;;;;;5.00;1.60;;;11.90;99.90;;;;;;5049920;28;20678;-70
2022/09/17 00:43:47;;;;;;;5.23;1.70;;;11.90;99.90;;;;;;5049902;28;20212;-69
2022/09/17 00:46:29;;;;;;;4.90;1.90;;;11.90;99.90;;;;;;5050089;28;20216;-69
2022/09/17 00:48:59;;;;;;;5.57;1.83;;;11.90;99.90;;;;;;5066494;28;20236;-69
2022/09/17 00:51:30;;;;;;;5.80;1.57;;;12.00;99.90;;;;;;5050236;28;20207;-69
2022/09/17 00:54:00;;;;;;;6.50;1.63;;;12.00;99.90;;;;;;5053951;28;20760;-69
2022/09/17 00:56:31;;;;;;;2.37;1.60;;;12.00;99.90;;;;;;5070128;28;20211;-69
2022/09/17 00:59:00;;;;;;;10.63;2.17;;;12.00;99.90;;;;;;5070150;28;20199;-69
2022/09/17 01:01:27;;;;;;;3.67;1.47;;;12.00;99.90;;;;;;5069578;28;20657;-69
2022/09/17 01:03:53;;;;;;;4.97;1.73;;;11.90;99.90;;;;;;5069986;28;20231;-69
2022/09/17 01:06:29;;;;;;;5.17;2.10;;;11.90;99.90;;;;;;5069046;28;20701;-69
2022/09/17 01:09:10;;;;;;;5.23;1.77;;;12.00;99.90;;;;;;5070068;28;20230;-69
2022/09/17 01:12:01;;;;;;;7.60;1.67;;;12.00;99.90;;;;;;5069838;28;20191;-69
2022/09/17 01:14:44;;;;;;;4.77;1.83;;;12.00;99.90;;;;;;5061347;28;20212;-69
2022/09/17 01:17:18;;;;;;;5.87;1.37;;;12.00;99.90;;;;;;5050188;28;20189;-69
2022/09/17 01:20:24;;;;;;;5.73;1.73;;;12.00;99.90;;;;;;5050515;28;20214;-69
2022/09/17 01:23:04;;;;;;;6.43;1.80;;;12.00;99.90;;;;;;5052954;28;20553;-69
2022/09/17 01:25:41;;;;;;;5.10;1.70;;;11.90;99.90;;;;;;5069497;28;20210;-69
2022/09/17 01:28:28;;;;;;;3.60;1.80;;;12.00;99.90;;;;;;5069437;28;20223;-69
2022/09/17 01:31:04;;;;;;;6.57;1.47;;;12.00;99.90;;;;;;5068778;28;20227;-69
2022/09/17 01:33:40;;;;;;;6.30;2.10;;;11.90;99.90;;;;;;5069098;28;20733;-69
2022/09/17 01:36:32;;;;;;;3.80;1.73;;;12.00;99.90;;;;;;5060115;28;20239;-69
2022/09/17 01:39:06;;;;;;;7.03;2.10;;;12.00;99.90;;;;;;5049232;28;20188;-69
2022/09/17 01:41:40;;;;;;;3.17;1.60;;;12.10;99.90;;;;;;5049887;28;20605;-69
2022/09/17 01:44:14;;;;;;;7.40;2.00;;;12.10;99.90;;;;;;5069158;28;20199;-69
2022/09/17 01:46:46;;;;;;;8.87;1.90;;;12.10;99.90;;;;;;5068308;28;20222;-69
2022/09/17 01:49:16;;;;;;;3.67;1.60;;;12.10;99.90;;;;;;5055163;28;20220;-69
2022/09/17 01:51:47;;;;;;;5.33;1.77;;;12.10;99.90;;;;;;5049261;28;20247;-69
2022/09/17 01:54:20;;;;;;;4.77;1.80;;;12.10;99.90;;;;;;5049411;28;20202;-69
2022/09/17 01:56:51;;;;;;;8.53;1.70;;;12.10;99.90;;;;;;5049913;28;20193;-68
2022/09/17 01:59:23;;;;;;;5.77;2.10;;;12.10;99.90;;;;;;5069025;28;20207;-68
2022/09/17 02:01:56;;;;;;;6.60;2.20;;;12.10;99.90;;;;;;5059122;28;20218;-68
2022/09/17 02:04:27;;;;;;;5.97;2.00;;;12.10;99.90;;;;;;5049125;28;20237;-68
2022/09/17 02:07:00;;;;;;;5.20;1.50;;;12.10;99.90;;;;;;5060435;28;20195;-69
2022/09/17 02:09:33;;;;;;;7.03;2.13;;;12.10;99.90;;;;;;5068656;28;20735;-69
2022/09/17 02:12:03;;;;;;;5.87;1.70;;;12.10;99.90;;;;;;5068865;28;20188;-69
2022/09/17 02:14:35;;;;;;;4.87;2.20;;;12.10;99.90;;;;;;5068817;28;20191;-69
2022/09/17 02:17:09;;;;;;;6.43;2.07;;;12.10;99.90;;;;;;5068590;28;20210;-69
2022/09/17 02:19:40;;;;;;;7.43;1.90;;;12.00;99.90;;;;;;5049700;28;20193;-69
2022/09/17 02:22:17;;;;;;;6.43;2.00;;;12.10;99.90;;;;;;5048815;28;20222;-69
2022/09/17 02:24:49;;;;;;;5.17;2.17;;;12.00;99.90;;;;;;5067084;28;20208;-69
2022/09/17 02:27:22;;;;;;;4.60;1.97;;;12.00;99.90;;;;;;5068426;28;20195;-69
2022/09/17 02:29:50;;;;;;;6.57;1.80;;;12.00;99.90;;;;;;5063104;28;20228;-69
2022/09/17 02:32:18;;;;;;;6.73;2.60;;;12.10;99.90;;;;;;5063301;28;20230;-69
2022/09/17 02:34:45;;;;;;;5.77;2.53;;;12.10;99.90;;;;;;5068386;28;20214;-69
2022/09/17 02:37:12;;;;;;;6.10;1.97;;;12.10;99.90;;;;;;5067724;28;20236;-69
2022/09/17 02:39:38;;;;;;;5.27;2.23;;;12.00;99.90;;;;;;5059690;28;20223;-69
2022/09/17 02:42:11;;;;;;;8.00;2.33;;;12.10;99.90;;;;;;5066818;28;20216;-69
2022/09/17 02:44:45;;;;;;;4.73;2.07;;;12.10;99.90;;;;;;5067864;28;20199;-69
2022/09/17 02:47:34;;;;;;;8.40;2.10;;;12.10;99.90;;;;;;5067822;28;20190;-68
2022/09/17 02:50:34;;;;;;;6.23;2.17;;;12.10;99.90;;;;;;5067857;28;20231;-68
2022/09/17 02:53:13;;;;;;;4.90;1.70;;;12.10;99.90;;;;;;5062876;28;20666;-68
2022/09/17 02:55:48;;;;;;;4.63;1.87;;;12.20;99.90;;;;;;5060801;28;20207;-69
2022/09/17 02:58:25;;;;;;;7.67;1.93;;;12.20;99.90;;;;;;5063290;28;20631;-69
2022/09/17 03:00:53;;;;;;;7.37;1.80;;;12.20;99.90;;;;;;5058834;28;20204;-69
2022/09/17 03:03:27;;;;;;;5.20;1.80;;;12.20;99.90;;;;;;5067511;28;20671;-68
2022/09/17 03:05:55;;;;;;;5.40;2.17;;;12.20;99.90;;;;;;5054853;28;20204;-68
2022/09/17 03:08:28;;;;;;;10.30;2.73;;;12.20;99.90;;;;;;5050831;28;20289;-68
2022/09/17 03:14:19;;;;;;;10.60;2.40;;;12.30;99.90;;;;;;5047026;28;20726;-68
2022/09/17 03:16:46;;;;;;;2.40;1.60;;;12.30;99.90;;;;;;5046115;28;20196;-74
2022/09/17 03:19:14;;;;;;;4.50;1.50;;;12.30;99.90;;;;;;5059509;28;20210;-74
2022/09/17 03:21:41;;;;;;;8.17;2.00;;;12.30;99.90;;;;;;5065905;28;20204;-73
2022/09/17 03:24:09;;;;;;;5.50;2.27;;;12.30;99.90;;;;;;5066055;28;20208;-73
2022/09/17 03:26:36;;;;;;;5.80;1.80;;;12.30;99.90;;;;;;5066241;28;20714;-72
2022/09/17 03:29:03;;;;;;;4.27;1.77;;;12.30;99.90;;;;;;5066238;28;20227;-73
2022/09/17 03:31:30;;;;;;;5.77;1.83;;;12.30;99.90;;;;;;5066502;28;20234;-73
2022/09/17 03:33:57;;;;;;;7.50;2.20;;;12.30;99.90;;;;;;5067742;28;20529;-71
2022/09/17 03:36:25;;;;;;;6.23;2.00;;;12.30;99.90;;;;;;5067026;28;20253;-73
2022/09/17 03:38:54;;;;;;;3.57;1.80;;;12.20;99.90;;;;;;5054268;28;20801;-72
2022/09/17 03:41:21;;;;;;;6.73;2.07;;;12.30;99.90;;;;;;5047568;28;20208;-70
2022/09/17 03:43:47;;;;;;;4.63;1.57;;;12.20;99.90;;;;;;5047331;28;20200;-71
2022/09/17 03:46:14;;;;;;;5.03;2.03;;;12.20;99.90;;;;;;5047134;28;20201;-72
2022/09/17 03:48:41;;;;;;;7.00;2.10;;;12.20;99.90;;;;;;5046901;28;20230;-72
2022/09/17 03:51:08;;;;;;;7.43;1.83;;;12.30;99.90;;;;;;5047492;28;20215;-72
2022/09/17 03:53:36;;;;;;;5.33;1.90;;;12.30;99.90;;;;;;5047926;28;20208;-72
2022/09/17 03:56:06;;;;;;;5.60;2.00;;;12.30;99.90;;;;;;5067216;28;20203;-71
2022/09/17 03:58:34;;;;;;;4.67;1.53;;;12.30;99.90;;;;;;5066646;28;20669;-72
2022/09/17 04:01:02;;;;;;;8.77;2.00;;;12.30;99.90;;;;;;5067000;28;20211;-72
2022/09/17 04:03:29;;;;;;;7.63;1.83;;;12.30;99.90;;;;;;5066855;28;20682;-71
2022/09/17 04:05:56;;;;;;;6.03;1.90;;;12.30;99.90;;;;;;5067163;28;20203;-72
2022/09/17 04:08:23;;;;;;;3.30;1.30;;;12.40;99.90;;;;;;5067132;28;20204;-71
2022/09/17 04:10:51;;;;;;;5.10;1.70;;;12.40;99.90;;;;;;5068717;28;20701;-71
2022/09/17 04:13:18;;;;;;;5.67;1.90;;;12.30;99.90;;;;;;5064598;28;20204;-71
2022/09/17 04:15:46;;;;;;;4.20;1.53;;;12.30;99.90;;;;;;5050716;28;20211;-72
2022/09/17 04:18:13;;;;;;;7.03;1.83;;;12.30;99.90;;;;;;5051026;28;20208;-73
2022/09/17 04:20:40;;;;;;;4.43;1.73;;;12.30;99.90;;;;;;5050795;28;20302;-72
2022/09/17 04:23:07;;;;;;;6.93;1.87;;;12.30;99.90;;;;;;5051050;28;20235;-73
2022/09/17 04:25:34;;;;;;;6.30;2.00;;;12.30;99.90;;;;;;5057088;28;20208;-73
2022/09/17 04:28:02;;;;;;;5.27;1.90;;;12.30;99.90;;;;;;5054430;28;20203;-73
2022/09/17 04:30:29;;;;;;;10.80;2.07;;;12.20;99.90;;;;;;5068663;28;20246;-73
2022/09/17 04:32:56;;;;;;;4.37;1.70;;;12.30;99.90;;;;;;5070765;28;20211;-73
2022/09/17 04:35:22;;;;;;;5.13;1.60;;;12.20;99.90;;;;;;5070522;28;20211;-73
2022/09/17 04:37:53;;;;;;;4.33;1.80;;;12.20;99.90;;;;;;5069986;28;20235;-73
2022/09/17 04:40:20;;;;;;;7.37;1.73;;;12.30;99.90;;;;;;5051773;28;20628;-73
2022/09/17 04:42:46;;;;;;;5.37;1.70;;;12.30;99.90;;;;;;5050490;28;20207;-72
2022/09/17 04:45:15;;;;;;;6.43;1.97;;;12.30;99.90;;;;;;5050190;28;20659;-73
2022/09/17 04:47:42;;;;;;;10.23;2.20;;;12.30;99.90;;;;;;5055389;28;20199;-72
2022/09/17 04:50:09;;;;;;;5.17;1.80;;;12.30;99.90;;;;;;5070937;28;20246;-73
2022/09/17 04:52:36;;;;;;;7.43;1.80;;;12.30;99.90;;;;;;5070185;28;20213;-72
2022/09/17 04:55:03;;;;;;;7.37;1.70;;;12.20;99.90;;;;;;5070468;28;20207;-72
2022/09/17 04:57:30;;;;;;;7.13;2.10;;;12.30;99.90;;;;;;5052481;28;20201;-72
2022/09/17 04:59:57;;;;;;;7.23;2.13;;;12.20;99.90;;;;;;5050176;28;20203;-72
2022/09/17 05:02:25;;;;;;;3.10;1.80;;;12.30;99.90;;;;;;5050063;28;20215;-72
2022/09/17 05:04:52;;;;;;;8.60;2.03;;;12.30;99.90;;;;;;5050398;28;20219;-72
2022/09/17 05:07:18;;;;;;;3.20;1.60;;;12.30;99.90;;;;;;5050502;28;20196;-73
2022/09/17 05:09:45;;;;;;;7.77;2.67;;;12.30;99.90;;;;;;5050255;28;20587;-73
2022/09/17 05:12:12;;;;;;;6.23;2.03;;;12.40;99.90;;;;;;5050166;28;20211;-72
2022/09/17 05:14:38;;;;;;;11.10;2.30;;;12.40;99.90;;;;;;5049601;28;20207;-73
2022/09/17 05:17:05;;;;;;;6.83;1.97;;;12.40;99.90;;;;;;5062321;28;20207;-72
2022/09/17 05:19:33;;;;;;;6.70;2.00;;;12.40;99.90;;;;;;5070055;28;20203;-72
2022/09/17 05:22:00;;;;;;;5.17;2.00;;;12.40;99.90;;;;;;5069354;28;20207;-72
2022/09/17 05:24:27;;;;;;;2.63;1.63;;;12.40;99.90;;;;;;5069793;28;20215;-73
2022/09/17 05:26:53;;;;;;;6.03;2.50;;;12.40;99.90;;;;;;5067862;28;20231;-73
2022/09/17 05:29:20;;;;;;;4.17;1.90;;;12.40;99.90;;;;;;5067805;28;20816;-72
2022/09/17 05:31:47;;;;;;;7.33;3.07;;;12.40;99.90;;;;;;5053203;28;20215;-72
2022/09/17 05:34:14;;;;;;;5.50;2.20;;;12.40;99.90;;;;;;5049864;28;20211;-73
2022/09/17 05:36:42;;;;;;;4.73;2.20;;;12.50;99.90;;;;;;5049366;28;20236;-73
2022/09/17 05:39:09;;;;;;;6.27;2.43;;;12.50;99.90;;;;;;5049801;28;20203;-72
2022/09/17 05:41:35;;;;;;;5.70;2.53;;;12.50;99.90;;;;;;5049209;28;20216;-73
2022/09/17 05:44:03;;;;;;;8.50;2.60;;;12.40;99.90;;;;;;5068996;28;20212;-72
2022/09/17 05:46:29;;;;;;;9.47;3.07;;;12.40;99.90;;;;;;5057679;28;20212;-72
2022/09/17 05:48:56;;;;;;;10.33;2.73;;;12.40;99.90;;;;;;5063877;28;20207;-72
2022/09/17 05:51:23;;;;;;;11.57;3.20;;;12.40;99.90;;;;;;5049421;28;20212;-72
2022/09/17 05:53:54;;;;;;;13.13;3.57;;;12.40;99.90;;;;;;5051941;28;20212;-72
2022/09/17 05:56:22;;;;;;;10.43;3.13;;;12.40;99.90;;;;;;5069332;28;20188;-72
2022/09/17 05:58:49;;;;;;;8.57;3.37;;;12.40;99.90;;;;;;5068901;28;20689;-72
2022/09/17 06:01:16;;;;;;;8.43;3.27;;;12.40;99.90;;;;;;5049727;28;21109;-72
2022/09/17 06:03:43;;;;;;;11.80;3.63;;;12.50;99.90;;;;;;5048978;28;20208;-71
2022/09/17 06:06:10;;;;;;;9.83;3.60;;;12.40;99.90;;;;;;5049248;28;20207;-71
2022/09/17 06:08:36;;;;;;;21.07;3.83;;;12.40;99.90;;;;;;5048802;28;20212;-71
2022/09/17 06:11:09;;;;;;;14.67;3.33;;;12.50;99.90;;;;;;5066617;28;20219;-71
2022/09/17 06:13:36;;;;;;;9.33;3.00;;;12.50;99.90;;;;;;5068922;28;20237;-70
2022/09/17 06:16:05;;;;;;;12.20;3.43;;;12.50;99.90;;;;;;5068807;28;20207;-70
2022/09/17 06:18:32;;;;;;;10.57;4.00;;;12.50;99.90;;;;;;5068776;28;20210;-71
2022/09/17 06:21:00;;;;;;;8.80;3.40;;;12.60;99.90;;;;;;5052434;28;20200;-72
2022/09/17 06:23:28;;;;;;;12.20;3.50;;;12.50;99.90;;;;;;5054072;28;20203;-72
2022/09/17 06:25:58;;;;;;;11.83;3.50;;;12.50;99.90;;;;;;5065981;28;20219;-72
2022/09/17 06:28:26;;;;;;;15.33;3.37;;;12.50;99.90;;;;;;5049194;28;20205;-72
2022/09/17 06:30:55;;;;;;;8.33;3.27;;;12.60;99.90;;;;;;5062178;28;20243;-72
2022/09/17 06:33:22;;;;;;;12.77;3.40;;;12.50;99.90;;;;;;5068552;28;20261;-72
2022/09/17 06:35:55;;;;;;;12.37;3.70;;;12.50;99.90;;;;;;5067978;28;20208;-72
2022/09/17 06:38:22;;;;;;;12.83;3.60;;;12.50;99.90;;;;;;5057416;28;20526;-72
2022/09/17 06:40:51;;;;;;;15.63;3.43;;;12.50;99.90;;;;;;5061682;28;20203;-73
2022/09/17 06:43:18;;;;;;;12.87;3.47;;;12.50;99.90;;;;;;5052442;28;20235;-73
2022/09/17 06:45:51;;;;;;;13.63;3.23;;;12.60;99.90;;;;;;5048133;28;20224;-73
2022/09/17 06:48:18;;;;;;;10.43;2.97;;;12.60;99.90;;;;;;5048434;28;20192;-73
2022/09/17 06:50:45;;;;;;;9.83;3.17;;;12.60;99.90;;;;;;5061515;28;20246;-73
2022/09/17 06:53:11;;;;;;;12.03;3.70;;;12.60;99.90;;;;;;5068175;28;20206;-73
2022/09/17 06:55:38;;;;;;;8.37;3.20;;;12.70;99.90;;;;;;5067675;28;20219;-73
2022/09/17 06:58:05;;;;;;;14.27;3.30;;;12.70;99.90;;;;;;5067865;28;20207;-72
2022/09/17 07:00:32;;;;;;;6.67;2.53;;;12.70;99.90;;;;;;5066483;28;20211;-72
2022/09/17 07:03:01;;;;;;;7.43;2.77;;;12.70;99.90;;;;;;5063793;28;20208;-72
2022/09/17 07:05:31;;;;;;;15.40;3.00;;;12.80;99.90;;;;;;5047752;28;20208;-72
2022/09/17 07:07:57;;;;;;;13.67;3.00;;;12.80;99.90;;;;;;5047702;28;20208;-72
2022/09/17 07:10:25;;;;;;;9.33;2.63;;;12.80;99.90;;;;;;5056601;28;20230;-72
2022/09/17 07:12:52;;;;;;;8.13;2.43;;;12.90;99.90;;;;;;5067669;28;20239;-73
2022/09/17 07:15:19;;;;;;;9.37;2.80;;;12.90;99.90;;;;;;5067462;28;20206;-72
2022/09/17 07:17:46;;;;;;;9.33;2.63;;;12.90;99.90;;;;;;5067547;28;20654;-72
2022/09/17 07:20:14;;;;;;;10.37;2.77;;;12.90;99.90;;;;;;5060110;28;20808;-72
2022/09/17 07:22:41;;;;;;;9.33;2.47;;;12.90;99.90;;;;;;5063507;28;20816;-72
2022/09/17 07:25:09;;;;;;;10.43;2.70;;;12.90;99.90;;;;;;5060946;28;20215;-72
2022/09/17 07:27:35;;;;;;;11.00;2.63;;;12.90;99.90;;;;;;5067357;28;20214;-72
2022/09/17 07:30:02;;;;;;;11.60;3.10;;;12.90;99.90;;;;;;5067226;28;20900;-72
2022/09/17 07:32:30;;;;;;;9.33;2.70;;;12.90;99.90;;;;;;5057014;28;20204;-73
2022/09/17 07:34:56;;;;;;;8.30;2.83;;;12.90;99.90;;;;;;5053981;28;20199;-72
2022/09/17 07:37:25;;;;;;;9.67;2.30;;;12.90;99.90;;;;;;5059942;28;20243;-72
2022/09/17 07:39:51;;;;;;;10.00;2.40;;;13.00;99.90;;;;;;5049079;28;20292;-72
2022/09/17 07:42:18;;;;;;;8.03;2.57;;;13.00;99.90;;;;;;5066555;28;20204;-72
2022/09/17 07:44:45;;;;;;;10.50;2.93;;;13.00;99.90;;;;;;5066965;28;20218;-72
2022/09/17 07:47:12;;;;;;;9.47;2.53;;;13.10;99.90;;;;;;5064674;28;20680;-73
2022/09/17 07:49:39;;;;;;;10.10;2.80;;;13.10;99.90;;;;;;5063747;28;20196;-73
2022/09/17 07:52:05;;;;;;;10.80;2.63;;;13.10;99.90;;;;;;5060802;28;20211;-73
2022/09/17 07:54:36;;;;;;;8.73;2.40;;;13.10;99.90;;;;;;5047221;28;20207;-70
2022/09/17 07:57:03;;;;;;;7.80;3.07;;;13.10;99.90;;;;;;5047351;28;20203;-70
2022/09/17 07:59:30;;;;;;;10.77;2.73;;;13.20;99.90;;;;;;5046971;28;20200;-69
2022/09/17 08:01:57;;;;;;;7.73;2.40;;;13.20;99.90;;;;;;5047301;28;20208;-70
2022/09/17 08:04:24;;;;;;;9.50;2.60;;;13.20;99.90;;;;;;5047108;28;20577;-69
2022/09/17 08:06:50;;;;;;;8.73;2.57;;;13.30;99.90;;;;;;5046530;28;20208;-69
2022/09/17 08:09:17;;;;;;;8.67;2.50;;;13.30;99.90;;;;;;5045133;28;20584;-69
2022/09/17 08:11:45;;;;;;;9.87;2.77;;;13.30;99.90;;;;;;5047267;28;20220;-69
2022/09/17 08:14:14;;;;;;;10.63;2.47;;;13.20;99.90;;;;;;5064823;28;20195;-69
2022/09/17 08:16:41;;;;;;;6.17;2.67;;;13.30;99.90;;;;;;5054043;28;20216;-69
2022/09/17 08:19:09;;;;;;;8.30;2.67;;;13.40;99.90;;;;;;5064745;28;20207;-68
2022/09/17 08:21:36;;;;;;;7.23;2.33;;;13.40;99.90;;;;;;5059710;28;20676;-68
2022/09/17 08:24:03;;;;;;;12.90;3.10;;;13.50;99.90;;;;;;5054366;28;20579;-68
2022/09/17 08:26:30;;;;;;;6.27;2.50;;;13.50;99.90;;;;;;5054248;28;20208;-68
2022/09/17 08:28:58;;;;;;;6.90;2.50;;;13.50;99.90;;;;;;5044524;28;20215;-68
2022/09/17 08:31:27;;;;;;;7.97;2.53;;;13.50;99.90;;;;;;5047478;28;20243;-68
2022/09/17 08:33:53;;;;;;;5.33;2.63;;;13.60;99.90;;;;;;5044949;28;20212;-68
2022/09/17 08:36:21;;;;;;;6.57;2.10;;;13.70;99.90;;;;;;5044508;28;20255;-69
2022/09/17 08:38:51;;;;;;;6.23;2.47;;;13.80;99.90;;;;;;5057273;28;20208;-68
2022/09/17 08:41:26;;;;;;;7.57;2.33;;;13.90;99.90;;;;;;5045176;28;20212;-69
2022/09/17 08:44:07;;;;;;;6.80;2.37;;;13.90;99.90;;;;;;5064384;28;20198;-69
2022/09/17 08:46:41;;;;;;;5.83;2.23;;;13.80;99.90;;;;;;5064016;28;20576;-68
2022/09/17 08:49:20;;;;;;;11.30;2.97;;;13.70;99.90;;;;;;5064317;28;20588;-68
2022/09/17 08:52:01;;;;;;;4.83;2.17;;;13.80;99.90;;;;;;5056507;28;20219;-69
2022/09/17 08:54:35;;;;;;;7.13;2.37;;;13.90;99.90;;;;;;5052189;28;20230;-69
2022/09/17 08:57:16;;;;;;;8.67;2.60;;;13.90;99.90;;;;;;5065030;28;20218;-69
2022/09/17 08:59:53;;;;;;;5.00;2.10;;;13.80;99.90;;;;;;5067892;28;20191;-69
2022/09/17 09:02:32;;;;;;;8.90;2.60;;;13.90;99.90;;;;;;5055633;28;20738;-70
2022/09/17 09:05:05;;;;;;;6.23;2.03;;;14.00;99.90;;;;;;5047916;28;20203;-69
2022/09/17 09:07:37;;;;;;;7.13;2.20;;;14.00;99.90;;;;;;5061789;28;20198;-69
2022/09/17 09:10:13;;;;;;;5.13;2.07;;;14.10;99.90;;;;;;5088358;28;20308;-69
2022/09/17 09:12:41;;;;;;;7.73;2.10;;;14.10;99.90;;;;;;5071720;28;20608;-69
2022/09/17 09:15:32;;;;;;;12.40;3.40;;;14.20;99.90;;;;;;5065050;28;20559;-69
2022/09/17 09:18:02;;;;;;;7.37;2.63;;;14.30;99.90;;;;;;5048367;28;20215;-69
2022/09/17 09:20:37;;;;;;;6.83;2.33;;;14.30;99.90;;;;;;5049542;28;20201;-69
2022/09/17 09:23:11;;;;;;;7.30;2.00;;;14.30;99.90;;;;;;5065803;28;20242;-69
2022/09/17 09:25:48;;;;;;;5.77;2.00;;;14.40;99.90;;;;;;5068010;28;20214;-69
2022/09/17 09:28:31;;;;;;;5.47;1.83;;;14.40;99.90;;;;;;5055252;28;20204;-69
2022/09/17 09:31:11;;;;;;;4.03;1.80;;;14.40;99.90;;;;;;5047514;28;20745;-69
2022/09/17 09:33:41;;;;;;;6.67;2.10;;;14.40;99.90;;;;;;5059509;28;20207;-69
2022/09/17 09:36:11;;;;;;;7.77;2.20;;;14.20;99.90;;;;;;5067823;28;20239;-70
2022/09/17 09:38:45;;;;;;;6.57;2.30;;;14.20;99.90;;;;;;5056575;28;20200;-69
2022/09/17 09:41:14;;;;;;;6.17;1.87;;;14.10;99.90;;;;;;5050590;28;20205;-69
2022/09/17 09:43:44;;;;;;;5.73;1.90;;;14.10;99.90;;;;;;5069110;28;20208;-69
2022/09/17 09:46:31;;;;;;;8.67;2.10;;;14.10;99.90;;;;;;5066419;28;20214;-69
2022/09/17 09:49:08;;;;;;;6.47;2.20;;;14.20;99.90;;;;;;5049402;28;20196;-69
2022/09/17 09:51:45;;;;;;;5.73;1.97;;;14.30;99.90;;;;;;5053118;28;20215;-69
2022/09/17 09:54:32;;;;;;;8.30;2.00;;;14.50;99.90;;;;;;5069451;28;20211;-69
2022/09/17 09:57:04;;;;;;;5.93;1.87;;;14.60;99.90;;;;;;5069659;28;20200;-69
2022/09/17 09:59:32;;;;;;;7.67;2.07;;;14.70;99.90;;;;;;5069173;28;20242;-69
2022/09/17 10:02:00;;;;;;;4.47;2.07;;;14.70;99.90;;;;;;5068235;28;20227;-69
2022/09/17 10:04:28;;;;;;;7.97;2.17;;;14.90;99.90;;;;;;5068599;28;20298;-69
2022/09/17 10:07:02;;;;;;;8.90;2.00;;;15.10;99.90;;;;;;5065925;28;20200;-70
2022/09/17 10:09:31;;;;;;;5.33;2.07;;;15.20;99.90;;;;;;5058421;28;20745;-70
2022/09/17 10:12:14;;;;;;;5.77;2.60;;;15.30;99.90;;;;;;5062194;28;20267;-70
2022/09/17 10:14:42;;;;;;;6.83;2.13;;;15.30;99.90;;;;;;5059287;28;20200;-70
2022/09/17 10:17:21;;;;;;;4.00;1.50;;;15.50;99.90;;;;;;5066473;28;20207;-69
2022/09/17 10:20:14;;;;;;;6.90;2.03;;;15.50;99.90;;;;;;5052114;28;20607;-69
2022/09/17 10:22:42;;;;;;;6.03;1.90;;;15.10;99.90;;;;;;5060629;28;20207;-69
2022/09/17 10:25:38;;;;;;;10.93;1.90;;;14.90;99.90;;;;;;5053869;28;20652;-69
2022/09/17 10:28:25;;;;;;;7.40;1.73;;;14.80;99.90;;;;;;5051065;28;20675;-70
2022/09/17 10:30:59;;;;;;;6.17;1.87;;;14.70;99.90;;;;;;5063641;28;20231;-69
2022/09/17 10:33:29;;;;;;;7.60;2.10;;;14.70;99.90;;;;;;5056243;28;20674;-70
2022/09/17 10:36:00;;;;;;;3.60;1.53;;;14.70;99.90;;;;;;5061485;28;20218;-70
2022/09/17 10:38:30;;;;;;;6.30;1.77;;;14.80;99.90;;;;;;5062000;28;20279;-69
2022/09/17 10:41:14;;;;;;;8.00;1.87;;;14.90;99.90;;;;;;5052385;28;20230;-69
2022/09/17 10:43:41;;;;;;;7.47;2.00;;;14.90;99.90;;;;;;5061117;28;20569;-69
2022/09/17 10:46:12;;;;;;;6.80;2.23;;;14.90;99.90;;;;;;5059058;28;20216;-69
2022/09/17 10:48:44;;;;;;;7.93;2.00;;;15.00;99.90;;;;;;5062895;28;20195;-69
2022/09/17 10:51:19;;;;;;;8.03;2.03;;;14.90;99.90;;;;;;5054340;28;20215;-70
2022/09/17 10:54:13;;;;;;;5.53;1.73;;;14.90;99.90;;;;;;5054789;28;20204;-70
2022/09/17 10:56:44;;;;;;;4.83;1.60;;;14.90;99.90;;;;;;5052988;28;20201;-70
2022/09/17 10:59:39;;;;;;;7.23;2.13;;;15.10;99.90;;;;;;5060410;28;20200;-70
2022/09/17 11:02:27;;;;;;;2.60;1.53;;;15.20;99.90;;;;;;5052197;28;20211;-70
2022/09/17 11:05:03;;;;;;;6.27;2.23;;;15.40;99.90;;;;;;5054470;28;20628;-70
2022/09/17 11:07:41;;;;;;;4.40;1.60;;;15.50;99.90;;;;;;5065425;28;20207;-70
2022/09/17 11:10:14;;;;;;;3.80;1.60;;;15.60;99.90;;;;;;5061608;28;21056;-69
2022/09/17 11:12:54;;;;;;;5.63;1.70;;;15.80;99.90;;;;;;5051070;28;20729;-69
2022/09/17 11:15:33;;;;;;;4.10;1.60;;;16.00;99.90;;;;;;5059841;28;20192;-70
2022/09/17 11:18:29;;;;;;;5.50;1.83;;;15.90;99.90;;;;;;5061483;28;20204;-70
2022/09/17 11:21:18;;;;;;;4.20;1.53;;;15.80;99.90;;;;;;5050442;28;20212;-69
2022/09/17 11:24:24;;;;;;;6.73;1.60;;;15.40;99.90;;;;;;5057680;28;20210;-70
2022/09/17 11:26:59;;;;;;;6.37;2.47;;;15.20;99.90;;;;;;5057298;28;20684;-70
2022/09/17 11:29:44;;;;;;;9.20;2.80;;;15.20;99.90;;;;;;5058407;28;20227;-70
2022/09/17 11:32:22;;;;;;;5.40;1.90;;;15.40;99.90;;;;;;5055475;28;20231;-70
2022/09/17 11:34:58;;;;;;;4.73;1.73;;;15.70;99.90;;;;;;5058492;28;20419;-69
2022/09/17 11:37:31;;;;;;;4.73;1.50;;;15.80;99.90;;;;;;5054259;28;20246;-69
2022/09/17 11:40:03;;;;;;;3.23;1.50;;;16.00;99.90;;;;;;5064831;28;20219;-70
2022/09/17 11:42:36;;;;;;;3.77;1.57;;;16.20;99.90;;;;;;5057916;28;20303;-69
2022/09/17 11:45:06;;;;;;;2.30;1.40;;;16.30;99.90;;;;;;5046338;28;20650;-69
2022/09/17 11:47:36;;;;;;;2.60;1.60;;;16.30;99.90;;;;;;5065146;28;20534;-70
2022/09/17 11:50:14;;;;;;;4.17;1.30;;;16.40;99.90;;;;;;5050880;28;20211;-69
2022/09/17 11:52:47;;;;;;;4.87;1.50;;;16.30;99.90;;;;;;5057360;28;20223;-69
2022/09/17 11:55:20;;;;;;;2.90;1.40;;;16.10;99.90;;;;;;5051874;28;20208;-70
2022/09/17 11:57:49;;;;;;;5.40;1.67;;;15.80;99.90;;;;;;5065650;28;20200;-69
2022/09/17 12:00:18;;;;;;;4.70;1.80;;;15.80;99.90;;;;;;5058971;28;20211;-70
2022/09/17 12:02:52;;;;;;;8.90;1.63;;;15.80;99.90;;;;;;5057828;28;20208;-70
2022/09/17 12:05:22;;;;;;;7.27;1.57;;;15.60;99.90;;;;;;5049251;28;20203;-70
2022/09/17 12:07:56;;;;;;;3.20;1.43;;;15.40;99.90;;;;;;5064681;28;20659;-70
2022/09/17 12:10:38;;;;;;;4.10;1.33;;;15.10;99.90;;;;;;5060427;28;20278;-70
2022/09/17 12:13:16;;;;;;;2.53;1.10;;;15.00;99.90;;;;;;5060486;28;20230;-69
2022/09/17 12:15:47;;;;;;;5.77;1.37;;;14.90;99.90;;;;;;5060050;28;20861;-70
2022/09/17 12:18:27;;;;;;;3.17;1.33;;;14.70;99.90;;;;;;5059293;28;20287;-70
2022/09/17 12:20:58;;;;;;;2.40;1.10;;;14.90;99.90;;;;;;5051102;28;20690;-70
2022/09/17 12:23:34;;;;;;;4.40;1.37;;;15.30;99.90;;;;;;5065984;28;20212;-70
2022/09/17 12:26:13;;;;;;;5.80;1.40;;;15.70;99.90;;;;;;5056357;28;20657;-70
2022/09/17 12:28:46;;;;;;;3.57;1.40;;;16.10;99.90;;;;;;5052258;28;20229;-69
2022/09/17 12:31:23;;;;;;;3.63;1.50;;;16.60;99.90;;;;;;5060172;28;20200;-70
2022/09/17 12:33:55;;;;;;;4.87;1.50;;;16.60;99.90;;;;;;5067939;28;20666;-70
2022/09/17 12:36:47;;;;;;;3.87;1.30;;;16.50;99.90;;;;;;5057567;28;20236;-69
2022/09/17 12:39:45;;;;;;;3.73;1.80;;;16.60;99.90;;;;;;5068492;28;20564;-70
2022/09/17 12:42:22;;;;;;;4.87;1.50;;;16.40;99.90;;;;;;5049584;28;20303;-69
2022/09/17 12:45:14;;;;;;;4.07;1.43;;;16.30;99.90;;;;;;5052269;28;20187;-69
2022/09/17 12:48:09;;;;;;;4.57;1.73;;;16.20;99.90;;;;;;5068630;28;20203;-69
2022/09/17 12:50:44;;;;;;;4.33;1.30;;;16.10;99.90;;;;;;5068962;28;20562;-70
2022/09/17 12:53:21;;;;;;;2.23;1.00;;;16.00;99.90;;;;;;5067979;28;20569;-69
2022/09/17 12:56:16;;;;;;;3.37;1.10;;;16.30;99.90;;;;;;5062991;28;20199;-69
2022/09/17 12:59:05;;;;;;;3.20;1.23;;;16.60;99.90;;;;;;5056339;28;20200;-69
2022/09/17 13:01:40;;;;;;;2.33;1.20;;;17.00;99.90;;;;;;5059857;28;20674;-71
2022/09/17 13:04:31;;;;;;;2.87;0.80;;;17.10;99.90;;;;;;5058179;28;20206;-68
2022/09/17 13:07:26;;;;;;;3.90;1.73;;;17.20;99.90;;;;;;5054188;28;20204;-68
2022/09/17 13:10:25;;;;;;;2.83;1.30;;;17.20;99.90;;;;;;5060215;28;20208;-68
2022/09/17 13:13:00;;;;;;;4.97;1.57;;;17.20;99.90;;;;;;5030098;28;20235;-68
2022/09/17 13:15:43;;;;;;;2.93;1.27;;;17.50;99.90;;;;;;5068442;28;20202;-68